Terminal Aerodrome Forecast
Issued by NWS Springfield, MO

Home | Current Version | Previous Version | Text Only | Print | Product List | Glossary On
Versions: 1 2 3 4 5 6 7 8 9 10 11 12 13 14 15 16 17
000
FTUS43 KSGF 262257 AAC
TAFSGF
TAF AMD
KSGF 262257Z 2623/2718 17015KT P6SM VCTS BKN040CB
      TEMPO 2623/2703 -TSRA OVC035CB
     FM270300 15014G22KT P6SM BKN050
     FM271200 15012KT P6SM VCTS OVC030CB=

USA.gov is the U.S. government's official web portal to all federal, state and local government web resources and services.